Liezen, Austria
Current Conditions -  °F | °C
As of 5:50 PM on Thursday 27 Nov 2014 (Local Time) from LOXZ Reporting Station
Broken Clouds Broken Clouds  
Wind Chill: 32°   Ceiling: 2600
Heat Index: 37°   Visibility: 9mi
Dew Point: 32°   Wind: 7mph
Humidity: 81%   Direction: 90°E
Pressure: 29.91"   Gusts: NA
Location:  47.57°N, 14.24°E
Report Text: LOXZ 271550Z 09006KT 15KM FEW015ST BKN026SC 03/00 Q1013 NOSIGRMK BKN
Loading
Personal Weather Stations






























Interactive Weather Map New forecast layout! Learn more

10-Day Weather Forecast

Advertisements
Track Severe Weather on mobile